Zim Pacific — A8OZ4 — position and weather

sailwx.info

Track history (hours):
 
Tides and Currents Weather Stations Pressure Air Temp Water Temp Dewpoint Dewpoint Depression Visibility Wind Speed Wind Dir Waves Ship Positions

Zim Pacific

Last reported at 2015-Aug-31 18:34 UTC. Time now 2015-Sep-01 16:15 UTC.
Position N 31°37' E 032°24'.

Length 253 m; draft 10.3 m.

Type: Ship. MMSI: 636016512.

Date/timePositionNaut miles runAvg speedWind from/ knotsBaromVisibWave heightAir tempDewpointWater temp
2015-Aug-31 18:34N 31°37' E 032°24'1712.0
2015-Aug-31 17:06N 31°50' E 032°38'712.9
2015-Aug-31 16:33N 31°56' E 032°41'4212.9
2015-Aug-31 13:18N 32°34' E 033°02'1013.1
2015-Aug-31 12:31N 32°44' E 033°07'4413.4
2015-Aug-31 09:13N 33°24' E 033°29'2913.6
2015-Aug-31 07:03N 33°51' E 033°43'713.4
2015-Aug-31 06:33N 33°57' E 033°46'1312.9
2015-Aug-31 05:34N 34°09' E 033°53'1212.4
2015-Aug-31 04:34N 34°20' E 033°59'108 2.2
2015-Aug-29 04:08N 34°35' E 031°49'1217.7
2015-Aug-29 03:27N 34°24' E 031°42'1617.6
2015-Aug-29 02:32N 34°10' E 031°34'2018.1
2015-Aug-29 01:26N 33°52' E 031°22'1617.7
2015-Aug-29 00:34N 33°38' E 031°14'3717.9
2015-Aug-28 22:31N 33°06' E 030°54'1717.5
2015-Aug-28 21:33N 32°51' E 030°45'1817.6
2015-Aug-28 20:34N 32°35' E 030°35'1817.7
2015-Aug-28 19:33N 32°20' E 030°25'2018.5
2015-Aug-28 18:29N 32°02' E 030°14'1919.8
2015-Aug-28 17:31N 31°45' E 030°05'1919.5
2015-Aug-28 16:32N 31°27' E 029°56'1818.1
2015-Aug-28 15:33N 31°10' E 029°48'2 0.9
2015-Aug-28 13:31N 31°09' E 029°48'0 0.0
2015-Aug-27 20:24N 31°09' E 029°48'0 0.0
2015-Aug-27 19:32N 31°09' E 029°48'2 1.6
2015-Aug-27 18:33N 31°10' E 029°48'1 1.1
2015-Aug-27 17:33N 31°11' E 029°48'1 1.1
2015-Aug-27 16:31N 31°12' E 029°48'2211.0
2015-Aug-27 14:30N 31°33' E 029°59'9615.7
2015-Aug-27 08:23N 32°00' E 031°47'1417.0
2015-Aug-27 07:32N 32°00' E 032°04'7117.1
2015-Aug-27 03:21N 31°59' E 033°28'59 2.2
2015-Aug-26 00:31N 32°13' E 034°37'1818.4
2015-Aug-25 23:33N 32°30' E 034°42'1818.4
2015-Aug-25 22:33N 32°48' E 034°49'8 0.4
2015-Aug-25 01:31N 32°52' E 034°56'10 9.7
2015-Aug-25 00:31N 32°54' E 034°45'228 7.8
2015-Aug-23 19:11N 29°35' E 032°35'  
Track history (hours):
 
Tides and Currents Weather Stations Pressure Air Temp Water Temp Dewpoint Dewpoint Depression Visibility Wind Speed Wind Dir Waves Ship Positions

Zim Pacific

Last reported at 2015-Aug-31 18:34 UTC. Time now 2015-Sep-01 16:15 UTC.
Position N 31°37' E 032°24'.

Length 253 m; draft 10.3 m.

Type: Ship. MMSI: 636016512.

Date/timePositionNaut miles runAvg speedWind from/ knotsBaromVisibWave heightAir tempDewpointWater temp
2015-Aug-31 18:34N 31°37' E 032°24'1712.0
2015-Aug-31 17:06N 31°50' E 032°38'712.9
2015-Aug-31 16:33N 31°56' E 032°41'4212.9
2015-Aug-31 13:18N 32°34' E 033°02'1013.1
2015-Aug-31 12:31N 32°44' E 033°07'4413.4
2015-Aug-31 09:13N 33°24' E 033°29'2913.6
2015-Aug-31 07:03N 33°51' E 033°43'713.4
2015-Aug-31 06:33N 33°57' E 033°46'1312.9
2015-Aug-31 05:34N 34°09' E 033°53'1212.4
2015-Aug-31 04:34N 34°20' E 033°59'108 2.2
2015-Aug-29 04:08N 34°35' E 031°49'1217.7
2015-Aug-29 03:27N 34°24' E 031°42'1617.6
2015-Aug-29 02:32N 34°10' E 031°34'2018.1
2015-Aug-29 01:26N 33°52' E 031°22'1617.7
2015-Aug-29 00:34N 33°38' E 031°14'3717.9
2015-Aug-28 22:31N 33°06' E 030°54'1717.5
2015-Aug-28 21:33N 32°51' E 030°45'1817.6
2015-Aug-28 20:34N 32°35' E 030°35'1817.7
2015-Aug-28 19:33N 32°20' E 030°25'2018.5
2015-Aug-28 18:29N 32°02' E 030°14'1919.8
2015-Aug-28 17:31N 31°45' E 030°05'1919.5
2015-Aug-28 16:32N 31°27' E 029°56'1818.1
2015-Aug-28 15:33N 31°10' E 029°48'2 0.9
2015-Aug-28 13:31N 31°09' E 029°48'0 0.0
2015-Aug-27 20:24N 31°09' E 029°48'0 0.0
2015-Aug-27 19:32N 31°09' E 029°48'2 1.6
2015-Aug-27 18:33N 31°10' E 029°48'1 1.1
2015-Aug-27 17:33N 31°11' E 029°48'1 1.1
2015-Aug-27 16:31N 31°12' E 029°48'2211.0
2015-Aug-27 14:30N 31°33' E 029°59'9615.7
2015-Aug-27 08:23N 32°00' E 031°47'1417.0
2015-Aug-27 07:32N 32°00' E 032°04'7117.1
2015-Aug-27 03:21N 31°59' E 033°28'59 2.2
2015-Aug-26 00:31N 32°13' E 034°37'1818.4
2015-Aug-25 23:33N 32°30' E 034°42'1818.4
2015-Aug-25 22:33N 32°48' E 034°49'8 0.4
2015-Aug-25 01:31N 32°52' E 034°56'10 9.7
2015-Aug-25 00:31N 32°54' E 034°45'228 7.8
2015-Aug-23 19:11N 29°35' E 032°35'  

Dump ship's entire track history